sensor_id;sensor_type;location;lat;lon;timestamp;pressure;altitude;pressure_sealevel;temperature;humidity
6343;BME280;3204;42.698;23.298;2022-11-15T00:01:38;95533.47;;;5.83;84.27
6343;BME280;3204;42.698;23.298;2022-11-15T00:04:04;95533.41;;;5.73;84.53
6343;BME280;3204;42.698;23.298;2022-11-15T00:06:30;95531.81;;;5.77;84.40
6343;BME280;3204;42.698;23.298;2022-11-15T00:08:58;95533.13;;;5.69;84.18
6343;BME280;3204;42.698;23.298;2022-11-15T00:11:24;95529.59;;;5.64;84.92
6343;BME280;3204;42.698;23.298;2022-11-15T00:13:50;95529.06;;;5.67;85.14
6343;BME280;3204;42.698;23.298;2022-11-15T00:16:16;95527.19;;;5.62;86.04
6343;BME280;3204;42.698;23.298;2022-11-15T00:18:41;95522.38;;;5.69;85.58
6343;BME280;3204;42.698;23.298;2022-11-15T00:21:10;95522.91;;;5.66;85.75
6343;BME280;3204;42.698;23.298;2022-11-15T00:23:36;95509.16;;;5.63;86.56
6343;BME280;3204;42.698;23.298;2022-11-15T00:26:03;95521.00;;;5.67;86.20
6343;BME280;3204;42.698;23.298;2022-11-15T00:28:28;95520.19;;;5.61;86.28
6343;BME280;3204;42.698;23.298;2022-11-15T00:31:00;95515.63;;;5.67;85.43
6343;BME280;3204;42.698;23.298;2022-11-15T00:33:26;95504.31;;;5.65;85.76
6343;BME280;3204;42.698;23.298;2022-11-15T00:35:52;95508.59;;;5.61;85.99
6343;BME280;3204;42.698;23.298;2022-11-15T00:38:17;95507.25;;;5.58;85.71
6343;BME280;3204;42.698;23.298;2022-11-15T00:40:42;95508.88;;;5.59;85.87
6343;BME280;3204;42.698;23.298;2022-11-15T00:43:08;95508.34;;;5.57;85.05
6343;BME280;3204;42.698;23.298;2022-11-15T00:45:34;95508.06;;;5.59;85.03
6343;BME280;3204;42.698;23.298;2022-11-15T00:47:59;95512.34;;;5.55;84.10
6343;BME280;3204;42.698;23.298;2022-11-15T00:50:25;95512.63;;;5.53;84.89
6343;BME280;3204;42.698;23.298;2022-11-15T00:52:50;95503.44;;;5.49;84.66
6343;BME280;3204;42.698;23.298;2022-11-15T00:55:17;95505.34;;;5.49;85.36
6343;BME280;3204;42.698;23.298;2022-11-15T00:57:43;95496.72;;;5.47;85.42
6343;BME280;3204;42.698;23.298;2022-11-15T01:00:09;95504.53;;;5.48;84.62
6343;BME280;3204;42.698;23.298;2022-11-15T01:02:35;95506.41;;;5.48;84.69
6343;BME280;3204;42.698;23.298;2022-11-15T01:05:00;95504.22;;;5.40;84.83
6343;BME280;3204;42.698;23.298;2022-11-15T01:07:26;95500.44;;;5.36;85.03
6343;BME280;3204;42.698;23.298;2022-11-15T01:09:51;95497.16;;;5.29;85.73
6343;BME280;3204;42.698;23.298;2022-11-15T01:12:17;95498.28;;;5.33;86.11
6343;BME280;3204;42.698;23.298;2022-11-15T01:14:42;95492.09;;;5.32;85.75
6343;BME280;3204;42.698;23.298;2022-11-15T01:17:08;95495.88;;;5.36;85.75
6343;BME280;3204;42.698;23.298;2022-11-15T01:19:33;95493.44;;;5.35;85.75
6343;BME280;3204;42.698;23.298;2022-11-15T01:21:59;95501.81;;;5.38;85.47
6343;BME280;3204;42.698;23.298;2022-11-15T01:24:24;95494.25;;;5.35;85.30
6343;BME280;3204;42.698;23.298;2022-11-15T01:26:50;95503.97;;;5.41;85.52
6343;BME280;3204;42.698;23.298;2022-11-15T01:29:16;95500.44;;;5.36;84.93
6343;BME280;3204;42.698;23.298;2022-11-15T01:31:41;95493.97;;;5.32;84.49
6343;BME280;3204;42.698;23.298;2022-11-15T01:34:07;95492.91;;;5.38;84.30
6343;BME280;3204;42.698;23.298;2022-11-15T01:36:32;95490.72;;;5.25;84.39
6343;BME280;3204;42.698;23.298;2022-11-15T01:38:59;95499.06;;;5.28;84.54
6343;BME280;3204;42.698;23.298;2022-11-15T01:41:28;95495.03;;;5.31;84.62
6343;BME280;3204;42.698;23.298;2022-11-15T01:47:00;95483.38;;;5.05;86.09
6343;BME280;3204;42.698;23.298;2022-11-15T01:49:27;95475.00;;;5.02;86.41
6343;BME280;3204;42.698;23.298;2022-11-15T01:51:55;95482.84;;;5.08;86.16
6343;BME280;3204;42.698;23.298;2022-11-15T01:54:23;95484.81;;;5.33;85.52
6343;BME280;3204;42.698;23.298;2022-11-15T01:56:53;95481.56;;;5.21;86.01
6343;BME280;3204;42.698;23.298;2022-11-15T01:59:20;95481.00;;;5.24;85.27
6343;BME280;3204;42.698;23.298;2022-11-15T02:01:46;95482.09;;;5.23;84.38
6343;BME280;3204;42.698;23.298;2022-11-15T02:04:45;95487.69;;;5.11;84.86
6343;BME280;3204;42.698;23.298;2022-11-15T02:07:14;95477.16;;;5.05;84.95
6343;BME280;3204;42.698;23.298;2022-11-15T02:09:41;95482.41;;;5.31;84.89
6343;BME280;3204;42.698;23.298;2022-11-15T02:12:09;95482.66;;;5.25;84.39
6343;BME280;3204;42.698;23.298;2022-11-15T02:14:39;95483.38;;;5.10;84.38
6343;BME280;3204;42.698;23.298;2022-11-15T02:20:14;95481.75;;;5.04;84.84
6343;BME280;3204;42.698;23.298;2022-11-15T02:39:36;95476.66;;;5.08;84.53
6343;BME280;3204;42.698;23.298;2022-11-15T02:42:12;95474.75;;;4.98;85.17
6343;BME280;3204;42.698;23.298;2022-11-15T02:44:58;95467.94;;;4.91;85.50
6343;BME280;3204;42.698;23.298;2022-11-15T02:47:28;95470.59;;;4.86;85.93
6343;BME280;3204;42.698;23.298;2022-11-15T02:50:05;95473.41;;;5.01;85.49
6343;BME280;3204;42.698;23.298;2022-11-15T02:52:32;95474.44;;;4.95;85.35
6343;BME280;3204;42.698;23.298;2022-11-15T02:54:59;95468.28;;;4.99;85.08
6343;BME280;3204;42.698;23.298;2022-11-15T02:57:52;95467.16;;;4.90;85.21
6343;BME280;3204;42.698;23.298;2022-11-15T03:00:22;95472.78;;;4.89;85.97
6343;BME280;3204;42.698;23.298;2022-11-15T03:03:00;95481.44;;;4.96;85.97
6343;BME280;3204;42.698;23.298;2022-11-15T03:11:07;95482.53;;;5.05;86.13
6343;BME280;3204;42.698;23.298;2022-11-15T03:13:36;95479.59;;;5.06;85.70
6343;BME280;3204;42.698;23.298;2022-11-15T03:16:39;95467.78;;;5.07;86.08
6343;BME280;3204;42.698;23.298;2022-11-15T03:19:14;95460.47;;;4.98;86.49
6343;BME280;3204;42.698;23.298;2022-11-15T03:21:42;95463.75;;;5.10;86.32
6343;BME280;3204;42.698;23.298;2022-11-15T03:24:10;95466.50;;;5.15;86.44
6343;BME280;3204;42.698;23.298;2022-11-15T03:26:39;95470.81;;;5.26;86.54
6343;BME280;3204;42.698;23.298;2022-11-15T03:29:16;95466.41;;;5.05;87.46
6343;BME280;3204;42.698;23.298;2022-11-15T03:31:45;95465.13;;;5.12;88.04
6343;BME280;3204;42.698;23.298;2022-11-15T03:34:29;95456.25;;;5.12;87.89
6343;BME280;3204;42.698;23.298;2022-11-15T03:36:57;95449.53;;;5.14;88.52
6343;BME280;3204;42.698;23.298;2022-11-15T03:39:23;95455.22;;;5.23;88.08
6343;BME280;3204;42.698;23.298;2022-11-15T03:42:16;95444.72;;;5.21;88.29
6343;BME280;3204;42.698;23.298;2022-11-15T03:45:15;95443.13;;;5.25;88.29
6343;BME280;3204;42.698;23.298;2022-11-15T03:47:53;95445.81;;;5.30;88.11
6343;BME280;3204;42.698;23.298;2022-11-15T03:50:21;95432.94;;;5.32;88.99
6343;BME280;3204;42.698;23.298;2022-11-15T03:52:48;95425.63;;;5.23;88.75
6343;BME280;3204;42.698;23.298;2022-11-15T03:55:19;95442.88;;;5.37;88.66
6343;BME280;3204;42.698;23.298;2022-11-15T03:57:47;95433.00;;;5.57;89.16
6343;BME280;3204;42.698;23.298;2022-11-15T04:00:13;95437.06;;;5.70;88.26
6343;BME280;3204;42.698;23.298;2022-11-15T04:02:39;95435.66;;;5.42;89.20
6343;BME280;3204;42.698;23.298;2022-11-15T04:05:05;95438.06;;;5.34;90.19
6343;BME280;3204;42.698;23.298;2022-11-15T04:07:30;95433.69;;;5.18;90.38
6343;BME280;3204;42.698;23.298;2022-11-15T04:09:56;95443.44;;;5.34;90.76
6343;BME280;3204;42.698;23.298;2022-11-15T04:12:30;95427.22;;;5.19;90.27
6343;BME280;3204;42.698;23.298;2022-11-15T04:15:17;95424.53;;;5.19;91.23
6343;BME280;3204;42.698;23.298;2022-11-15T04:17:48;95434.13;;;5.00;91.38
6343;BME280;3204;42.698;23.298;2022-11-15T04:20:21;95425.81;;;5.01;91.83
6343;BME280;3204;42.698;23.298;2022-11-15T04:23:09;95428.47;;;4.91;92.22
6343;BME280;3204;42.698;23.298;2022-11-15T04:25:54;95422.03;;;4.97;92.22
6343;BME280;3204;42.698;23.298;2022-11-15T04:28:21;95431.16;;;4.96;92.99
6343;BME280;3204;42.698;23.298;2022-11-15T04:30:47;95424.69;;;4.87;93.16
6343;BME280;3204;42.698;23.298;2022-11-15T04:33:12;95426.69;;;5.12;92.51
6343;BME280;3204;42.698;23.298;2022-11-15T04:35:38;95431.00;;;5.23;91.95
6343;BME280;3204;42.698;23.298;2022-11-15T04:38:05;95422.16;;;5.27;91.66
6343;BME280;3204;42.698;23.298;2022-11-15T04:40:31;95424.84;;;5.22;91.67
6343;BME280;3204;42.698;23.298;2022-11-15T04:42:57;95426.13;;;5.10;92.43
6343;BME280;3204;42.698;23.298;2022-11-15T04:45:23;95419.69;;;5.11;92.85
6343;BME280;3204;42.698;23.298;2022-11-15T04:47:48;95424.53;;;5.14;92.91
6343;BME280;3204;42.698;23.298;2022-11-15T04:50:15;95425.88;;;5.16;93.05
6343;BME280;3204;42.698;23.298;2022-11-15T04:52:41;95425.84;;;5.06;93.38
6343;BME280;3204;42.698;23.298;2022-11-15T04:55:10;95426.13;;;5.10;93.95
6343;BME280;3204;42.698;23.298;2022-11-15T04:57:36;95418.31;;;5.03;94.13
6343;BME280;3204;42.698;23.298;2022-11-15T05:00:07;95434.09;;;4.90;95.15
6343;BME280;3204;42.698;23.298;2022-11-15T05:02:33;95435.78;;;5.06;94.72
6343;BME280;3204;42.698;23.298;2022-11-15T05:05:17;95430.19;;;5.12;94.15
6343;BME280;3204;42.698;23.298;2022-11-15T05:07:43;95429.13;;;5.18;94.48
6343;BME280;3204;42.698;23.298;2022-11-15T05:10:08;95433.47;;;5.39;93.28
6343;BME280;3204;42.698;23.298;2022-11-15T05:12:35;95426.44;;;5.23;93.92
6343;BME280;3204;42.698;23.298;2022-11-15T05:15:00;95435.63;;;5.32;94.88
6343;BME280;3204;42.698;23.298;2022-11-15T05:17:26;95432.13;;;5.32;94.36
6343;BME280;3204;42.698;23.298;2022-11-15T05:19:51;95426.22;;;5.30;94.32
6343;BME280;3204;42.698;23.298;2022-11-15T05:22:18;95425.38;;;5.29;94.90
6343;BME280;3204;42.698;23.298;2022-11-15T05:24:44;95419.69;;;5.11;95.68
6343;BME280;3204;42.698;23.298;2022-11-15T05:27:09;95425.31;;;5.04;96.56
6343;BME280;3204;42.698;23.298;2022-11-15T05:29:35;95425.09;;;5.16;96.67
6343;BME280;3204;42.698;23.298;2022-11-15T05:32:00;95424.53;;;5.14;97.37
6343;BME280;3204;42.698;23.298;2022-11-15T05:34:26;95416.19;;;5.10;97.65
6343;BME280;3204;42.698;23.298;2022-11-15T05:36:52;95429.38;;;5.17;98.43
6343;BME280;3204;42.698;23.298;2022-11-15T05:39:17;95421.66;;;5.40;98.02
6343;BME280;3204;42.698;23.298;2022-11-15T05:41:56;95416.56;;;5.39;97.19
6343;BME280;3204;42.698;23.298;2022-11-15T05:44:23;95431.03;;;5.28;97.36
6343;BME280;3204;42.698;23.298;2022-11-15T05:46:51;95433.97;;;5.21;97.94
6343;BME280;3204;42.698;23.298;2022-11-15T05:49:22;95431.22;;;5.11;98.04
6343;BME280;3204;42.698;23.298;2022-11-15T05:51:50;95430.13;;;5.02;98.39
6343;BME280;3204;42.698;23.298;2022-11-15T05:54:17;95431.41;;;4.90;99.21
6343;BME280;3204;42.698;23.298;2022-11-15T05:56:43;95428.97;;;4.88;98.80
6343;BME280;3204;42.698;23.298;2022-11-15T05:59:09;95433.59;;;4.93;98.78
6343;BME280;3204;42.698;23.298;2022-11-15T06:01:35;95438.34;;;4.81;98.57
6343;BME280;3204;42.698;23.298;2022-11-15T06:04:01;95437.78;;;4.74;99.12
6343;BME280;3204;42.698;23.298;2022-11-15T06:06:30;95446.44;;;4.86;99.58
6343;BME280;3204;42.698;23.298;2022-11-15T06:08:55;95444.56;;;4.86;99.52
6343;BME280;3204;42.698;23.298;2022-11-15T06:11:21;95447.34;;;5.06;99.01
6343;BME280;3204;42.698;23.298;2022-11-15T06:13:46;95444.41;;;5.08;98.38
6343;BME280;3204;42.698;23.298;2022-11-15T06:16:12;95452.44;;;5.03;97.66
6343;BME280;3204;42.698;23.298;2022-11-15T06:18:37;95451.91;;;5.01;97.88
6343;BME280;3204;42.698;23.298;2022-11-15T06:21:03;95448.69;;;5.09;97.34
6343;BME280;3204;42.698;23.298;2022-11-15T06:23:32;95444.41;;;5.08;97.58
6343;BME280;3204;42.698;23.298;2022-11-15T06:25:58;95444.34;;;4.98;97.39
6343;BME280;3204;42.698;23.298;2022-11-15T06:28:24;95443.88;;;5.11;97.82
6343;BME280;3204;42.698;23.298;2022-11-15T06:30:53;95440.16;;;5.22;97.13
6343;BME280;3204;42.698;23.298;2022-11-15T06:33:18;95434.25;;;5.25;97.00
6343;BME280;3204;42.698;23.298;2022-11-15T06:35:44;95432.31;;;5.15;96.84
6343;BME280;3204;42.698;23.298;2022-11-15T06:38:10;95431.53;;;5.15;96.92
6343;BME280;3204;42.698;23.298;2022-11-15T06:40:39;95437.19;;;5.18;97.27
6343;BME280;3204;42.698;23.298;2022-11-15T06:43:05;95439.59;;;5.15;96.90
6343;BME280;3204;42.698;23.298;2022-11-15T06:45:31;95433.13;;;5.11;97.90
6343;BME280;3204;42.698;23.298;2022-11-15T06:47:57;95434.25;;;5.25;97.12
6343;BME280;3204;42.698;23.298;2022-11-15T06:50:23;95438.00;;;5.29;97.36
6343;BME280;3204;42.698;23.298;2022-11-15T06:52:49;95431.06;;;5.43;97.01
6343;BME280;3204;42.698;23.298;2022-11-15T06:55:14;95424.06;;;5.37;96.04
6343;BME280;3204;42.698;23.298;2022-11-15T06:57:50;95434.78;;;5.22;96.95
6343;BME280;3204;42.698;23.298;2022-11-15T07:00:20;95428.34;;;5.28;97.40
6343;BME280;3204;42.698;23.298;2022-11-15T07:02:46;95426.25;;;5.40;97.62
6343;BME280;3204;42.698;23.298;2022-11-15T07:05:12;95427.03;;;5.45;97.36
6343;BME280;3204;42.698;23.298;2022-11-15T07:07:38;95427.34;;;5.44;97.24
6343;BME280;3204;42.698;23.298;2022-11-15T07:10:05;95426.22;;;5.30;97.34
6343;BME280;3204;42.698;23.298;2022-11-15T07:12:30;95412.19;;;5.28;98.10
6343;BME280;3204;42.698;23.298;2022-11-15T07:14:56;95420.47;;;5.11;97.59
6343;BME280;3204;42.698;23.298;2022-11-15T07:17:21;95425.06;;;5.06;98.76
6343;BME280;3204;42.698;23.298;2022-11-15T07:19:47;95426.72;;;5.27;98.63
6343;BME280;3204;42.698;23.298;2022-11-15T07:22:12;95415.78;;;5.63;100.00
6343;BME280;3204;42.698;23.298;2022-11-15T07:24:38;95427.59;;;5.47;98.30
6343;BME280;3204;42.698;23.298;2022-11-15T07:27:03;95429.47;;;5.42;97.37
6343;BME280;3204;42.698;23.298;2022-11-15T07:29:29;95429.66;;;5.25;98.01
6343;BME280;3204;42.698;23.298;2022-11-15T07:31:54;95430.47;;;5.16;99.14
6343;BME280;3204;42.698;23.298;2022-11-15T07:34:20;95432.59;;;5.19;98.98
6343;BME280;3204;42.698;23.298;2022-11-15T07:36:46;95427.00;;;5.30;99.17
6343;BME280;3204;42.698;23.298;2022-11-15T07:39:11;95426.28;;;5.55;98.29
6343;BME280;3204;42.698;23.298;2022-11-15T07:41:37;95426.81;;;5.67;97.19
6343;BME280;3204;42.698;23.298;2022-11-15T07:44:04;95429.50;;;5.67;97.13
6343;BME280;3204;42.698;23.298;2022-11-15T07:46:30;95417.97;;;5.66;97.28
6343;BME280;3204;42.698;23.298;2022-11-15T07:48:56;95420.38;;;5.68;96.97
6343;BME280;3204;42.698;23.298;2022-11-15T07:51:22;95427.91;;;5.66;96.71
6343;BME280;3204;42.698;23.298;2022-11-15T07:53:48;95436.78;;;5.66;97.33
6343;BME280;3204;42.698;23.298;2022-11-15T07:56:13;95420.63;;;5.61;96.88
6343;BME280;3204;42.698;23.298;2022-11-15T07:58:39;95421.16;;;5.58;97.06
6343;BME280;3204;42.698;23.298;2022-11-15T08:01:05;95419.81;;;5.56;97.66
6343;BME280;3204;42.698;23.298;2022-11-15T08:03:32;95425.78;;;5.73;97.16
6343;BME280;3204;42.698;23.298;2022-11-15T08:05:58;95424.22;;;5.87;96.16
6343;BME280;3204;42.698;23.298;2022-11-15T08:08:23;95424.22;;;5.82;96.33
6343;BME280;3204;42.698;23.298;2022-11-15T08:10:49;95419.91;;;5.86;96.69
6343;BME280;3204;42.698;23.298;2022-11-15T08:13:15;95420.44;;;5.88;96.14
6343;BME280;3204;42.698;23.298;2022-11-15T08:15:41;95427.69;;;5.87;95.78
6343;BME280;3204;42.698;23.298;2022-11-15T08:18:15;95410.16;;;5.80;96.03
6343;BME280;3204;42.698;23.298;2022-11-15T08:20:41;95412.31;;;5.68;97.01
6343;BME280;3204;42.698;23.298;2022-11-15T08:23:09;95417.69;;;5.73;97.18
6343;BME280;3204;42.698;23.298;2022-11-15T08:25:35;95413.41;;;5.72;97.37
6343;BME280;3204;42.698;23.298;2022-11-15T08:28:03;95407.47;;;5.75;96.68
6343;BME280;3204;42.698;23.298;2022-11-15T08:30:30;95400.25;;;5.95;96.86
6343;BME280;3204;42.698;23.298;2022-11-15T08:32:57;95405.38;;;5.97;96.35
6343;BME280;3204;42.698;23.298;2022-11-15T08:35:23;95400.50;;;6.04;96.16
6343;BME280;3204;42.698;23.298;2022-11-15T08:37:49;95403.19;;;6.19;96.11
6343;BME280;3204;42.698;23.298;2022-11-15T08:40:15;95402.13;;;6.25;96.21
6343;BME280;3204;42.698;23.298;2022-11-15T08:42:41;95399.41;;;6.50;94.64
6343;BME280;3204;42.698;23.298;2022-11-15T08:45:07;95400.50;;;6.44;93.98
6343;BME280;3204;42.698;23.298;2022-11-15T08:47:34;95406.97;;;6.38;93.54
6343;BME280;3204;42.698;23.298;2022-11-15T08:49:59;95396.47;;;6.31;93.20
6343;BME280;3204;42.698;23.298;2022-11-15T08:52:25;95396.75;;;6.35;93.60
6343;BME280;3204;42.698;23.298;2022-11-15T08:54:50;95390.81;;;6.33;93.91
6343;BME280;3204;42.698;23.298;2022-11-15T08:57:16;95383.50;;;6.48;93.48
6343;BME280;3204;42.698;23.298;2022-11-15T08:59:41;95375.75;;;6.22;93.14
6343;BME280;3204;42.698;23.298;2022-11-15T09:02:12;95383.53;;;6.38;93.30
6343;BME280;3204;42.698;23.298;2022-11-15T09:04:40;95380.81;;;6.48;93.17
6343;BME280;3204;42.698;23.298;2022-11-15T09:07:06;95372.50;;;6.40;93.41
6343;BME280;3204;42.698;23.298;2022-11-15T09:09:31;95371.13;;;6.42;93.40
6343;BME280;3204;42.698;23.298;2022-11-15T09:11:57;95369.25;;;6.38;93.39
6343;BME280;3204;42.698;23.298;2022-11-15T09:14:22;95374.34;;;6.44;92.80
6343;BME280;3204;42.698;23.298;2022-11-15T09:16:48;95367.09;;;6.45;92.79
6343;BME280;3204;42.698;23.298;2022-11-15T09:19:13;95363.88;;;6.23;94.01
6343;BME280;3204;42.698;23.298;2022-11-15T09:21:40;95354.75;;;6.29;94.17
6343;BME280;3204;42.698;23.298;2022-11-15T09:24:06;95358.22;;;6.29;93.38
6343;BME280;3204;42.698;23.298;2022-11-15T09:26:31;95349.88;;;6.31;93.86
6343;BME280;3204;42.698;23.298;2022-11-15T09:28:56;95347.44;;;6.34;93.61
6343;BME280;3204;42.698;23.298;2022-11-15T09:31:22;95346.06;;;6.42;93.05
6343;BME280;3204;42.698;23.298;2022-11-15T09:33:48;95346.63;;;6.39;92.76
6343;BME280;3204;42.698;23.298;2022-11-15T09:36:13;95347.16;;;6.41;92.87
6343;BME280;3204;42.698;23.298;2022-11-15T09:38:39;95343.03;;;6.63;92.64
6343;BME280;3204;42.698;23.298;2022-11-15T09:49:22;95326.22;;;6.96;91.22
6343;BME280;3204;42.698;23.298;2022-11-15T09:51:53;95321.47;;;6.78;91.30
6343;BME280;3204;42.698;23.298;2022-11-15T09:54:34;95307.16;;;6.78;91.96
6343;BME280;3204;42.698;23.298;2022-11-15T09:57:15;95312.56;;;6.73;92.41
6343;BME280;3204;42.698;23.298;2022-11-15T10:00:13;95308.53;;;6.75;91.56
6343;BME280;3204;42.698;23.298;2022-11-15T10:02:55;95298.22;;;6.82;92.29
6343;BME280;3204;42.698;23.298;2022-11-15T10:05:23;95297.91;;;6.94;91.28
6343;BME280;3204;42.698;23.298;2022-11-15T10:10:50;95293.47;;;7.18;90.71
6343;BME280;3204;42.698;23.298;2022-11-15T10:13:24;95296.84;;;7.38;90.51
6343;BME280;3204;42.698;23.298;2022-11-15T10:15:50;95283.31;;;7.43;89.64
6343;BME280;3204;42.698;23.298;2022-11-15T10:21:20;95281.66;;;7.47;89.26
6343;BME280;3204;42.698;23.298;2022-11-15T10:23:47;95275.31;;;7.67;88.61
6343;BME280;3204;42.698;23.298;2022-11-15T10:26:15;95282.78;;;7.75;88.07
6343;BME280;3204;42.698;23.298;2022-11-15T10:28:42;95281.88;;;7.89;88.05
6343;BME280;3204;42.698;23.298;2022-11-15T10:31:25;95265.59;;;7.66;87.61
6343;BME280;3204;42.698;23.298;2022-11-15T10:36:59;95253.47;;;7.63;87.86
6343;BME280;3204;42.698;23.298;2022-11-15T10:39:27;95252.59;;;7.73;87.47
6343;BME280;3204;42.698;23.298;2022-11-15T10:41:53;95246.13;;;7.69;87.74
6343;BME280;3204;42.698;23.298;2022-11-15T10:44:21;95246.41;;;7.67;88.24
6343;BME280;3204;42.698;23.298;2022-11-15T10:49:32;95232.09;;;7.72;88.67
6343;BME280;3204;42.698;23.298;2022-11-15T10:52:02;95232.09;;;7.72;88.25
6343;BME280;3204;42.698;23.298;2022-11-15T10:54:48;95223.75;;;7.68;87.46
6343;BME280;3204;42.698;23.298;2022-11-15T10:57:17;95223.13;;;7.76;87.63
6343;BME280;3204;42.698;23.298;2022-11-15T11:00:06;95216.13;;;7.75;87.75
6343;BME280;3204;42.698;23.298;2022-11-15T11:02:45;95211.03;;;7.69;88.06
6343;BME280;3204;42.698;23.298;2022-11-15T11:05:40;95194.09;;;7.63;88.03
6343;BME280;3204;42.698;23.298;2022-11-15T11:10:37;95201.63;;;7.66;88.87
6343;BME280;3204;42.698;23.298;2022-11-15T11:13:22;95205.38;;;7.70;88.06
6343;BME280;3204;42.698;23.298;2022-11-15T11:15:54;95204.22;;;7.76;88.15
6343;BME280;3204;42.698;23.298;2022-11-15T11:18:44;95196.41;;;7.75;87.83
6343;BME280;3204;42.698;23.298;2022-11-15T11:21:15;95187.84;;;7.68;88.28
6343;BME280;3204;42.698;23.298;2022-11-15T11:24:08;95187.03;;;7.67;87.88
6343;BME280;3204;42.698;23.298;2022-11-15T11:26:48;95174.34;;;7.68;88.18
6343;BME280;3204;42.698;23.298;2022-11-15T11:35:19;95161.91;;;7.72;88.09
6343;BME280;3204;42.698;23.298;2022-11-15T11:38:15;95152.88;;;7.81;88.12
6343;BME280;3204;42.698;23.298;2022-11-15T11:51:28;95128.97;;;8.17;86.77
6343;BME280;3204;42.698;23.298;2022-11-15T11:54:01;95123.25;;;8.23;86.84
6343;BME280;3204;42.698;23.298;2022-11-15T11:56:32;95118.16;;;8.17;85.85
6343;BME280;3204;42.698;23.298;2022-11-15T12:01:42;95114.63;;;8.21;85.77
6343;BME280;3204;42.698;23.298;2022-11-15T12:04:13;95105.25;;;8.14;86.23
6343;BME280;3204;42.698;23.298;2022-11-15T12:06:53;95107.09;;;8.37;85.61
6343;BME280;3204;42.698;23.298;2022-11-15T12:12:08;95092.31;;;8.53;85.55
6343;BME280;3204;42.698;23.298;2022-11-15T12:14:49;95091.00;;;8.50;85.65
6343;BME280;3204;42.698;23.298;2022-11-15T12:17:19;95082.06;;;8.50;84.79
6343;BME280;3204;42.698;23.298;2022-11-15T12:19:46;95087.19;;;8.51;85.69
6343;BME280;3204;42.698;23.298;2022-11-15T12:22:18;95078.44;;;8.59;85.17
6343;BME280;3204;42.698;23.298;2022-11-15T12:25:00;95072.06;;;8.50;85.17
6343;BME280;3204;42.698;23.298;2022-11-15T12:27:41;95076.75;;;8.63;84.62
6343;BME280;3204;42.698;23.298;2022-11-15T12:30:19;95070.81;;;8.61;84.86
6343;BME280;3204;42.698;23.298;2022-11-15T12:33:00;95069.97;;;8.66;85.22
6343;BME280;3204;42.698;23.298;2022-11-15T12:37:54;95058.94;;;8.94;84.03
6343;BME280;3204;42.698;23.298;2022-11-15T12:45:44;95051.47;;;9.05;82.98
6343;BME280;3204;42.698;23.298;2022-11-15T12:51:07;95051.41;;;9.23;82.72
6343;BME280;3204;42.698;23.298;2022-11-15T12:53:34;95047.63;;;9.38;81.91
6343;BME280;3204;42.698;23.298;2022-11-15T13:01:07;95045.00;;;9.33;82.63
6343;BME280;3204;42.698;23.298;2022-11-15T13:03:33;95035.94;;;9.56;81.94
6343;BME280;3204;42.698;23.298;2022-11-15T13:06:01;95038.44;;;9.66;80.93
6343;BME280;3204;42.698;23.298;2022-11-15T13:08:37;95046.25;;;9.81;80.44
6343;BME280;3204;42.698;23.298;2022-11-15T13:14:45;95031.81;;;9.99;80.10
6343;BME280;3204;42.698;23.298;2022-11-15T13:17:30;95026.78;;;10.06;80.48
6343;BME280;3204;42.698;23.298;2022-11-15T13:35:59;95009.84;;;10.49;78.85
6343;BME280;3204;42.698;23.298;2022-11-15T13:40:55;95024.56;;;10.57;78.42
6343;BME280;3204;42.698;23.298;2022-11-15T13:46:13;95024.69;;;10.74;77.91
6343;BME280;3204;42.698;23.298;2022-11-15T13:48:40;95019.22;;;10.87;77.11
6343;BME280;3204;42.698;23.298;2022-11-15T13:54:06;95017.66;;;10.73;77.33
6343;BME280;3204;42.698;23.298;2022-11-15T13:56:33;95009.53;;;10.51;77.89
6343;BME280;3204;42.698;23.298;2022-11-15T13:59:00;95013.78;;;10.65;77.50
6343;BME280;3204;42.698;23.298;2022-11-15T14:01:28;95012.59;;;10.58;77.86
6343;BME280;3204;42.698;23.298;2022-11-15T14:03:58;95013.03;;;10.51;78.42
6343;BME280;3204;42.698;23.298;2022-11-15T14:06:25;95005.19;;;10.28;78.74
6343;BME280;3204;42.698;23.298;2022-11-15T14:11:58;95006.19;;;10.32;79.03
6343;BME280;3204;42.698;23.298;2022-11-15T14:14:25;95004.00;;;10.42;78.67
6343;BME280;3204;42.698;23.298;2022-11-15T14:16:57;95009.56;;;10.37;78.46
6343;BME280;3204;42.698;23.298;2022-11-15T14:22:17;94994.97;;;10.11;79.17
6343;BME280;3204;42.698;23.298;2022-11-15T14:24:50;94991.44;;;10.11;79.64
6343;BME280;3204;42.698;23.298;2022-11-15T14:27:29;94991.28;;;9.94;80.33
6343;BME280;3204;42.698;23.298;2022-11-15T14:29:55;94996.06;;;9.97;80.23
6343;BME280;3204;42.698;23.298;2022-11-15T14:32:23;94998.97;;;10.00;80.05
6343;BME280;3204;42.698;23.298;2022-11-15T14:35:00;94993.75;;;10.04;80.32
6343;BME280;3204;42.698;23.298;2022-11-15T14:37:31;94995.47;;;10.13;79.55
6343;BME280;3204;42.698;23.298;2022-11-15T14:40:03;95000.41;;;9.84;80.27
6343;BME280;3204;42.698;23.298;2022-11-15T14:42:29;95002.31;;;9.70;80.64
6343;BME280;3204;42.698;23.298;2022-11-15T14:44:54;94995.47;;;9.46;82.05
6343;BME280;3204;42.698;23.298;2022-11-15T14:47:20;94991.28;;;9.40;82.55
6343;BME280;3204;42.698;23.298;2022-11-15T14:49:46;94995.09;;;9.39;82.43
6343;BME280;3204;42.698;23.298;2022-11-15T14:54:49;94990.97;;;9.41;82.06
6343;BME280;3204;42.698;23.298;2022-11-15T14:57:15;94984.25;;;9.39;82.30
6343;BME280;3204;42.698;23.298;2022-11-15T14:59:40;94988.38;;;9.23;83.57
6343;BME280;3204;42.698;23.298;2022-11-15T15:02:18;94989.06;;;9.15;83.28
6343;BME280;3204;42.698;23.298;2022-11-15T15:04:44;94991.03;;;9.09;83.46
6343;BME280;3204;42.698;23.298;2022-11-15T15:07:09;94982.53;;;9.16;83.38
6343;BME280;3204;42.698;23.298;2022-11-15T15:09:35;94976.34;;;9.15;83.65
6343;BME280;3204;42.698;23.298;2022-11-15T15:12:01;94980.59;;;8.89;84.64
6343;BME280;3204;42.698;23.298;2022-11-15T15:14:26;94983.00;;;8.91;84.24
6343;BME280;3204;42.698;23.298;2022-11-15T15:16:52;94976.97;;;8.94;84.08
6343;BME280;3204;42.698;23.298;2022-11-15T15:19:17;94971.97;;;8.87;84.09
6343;BME280;3204;42.698;23.298;2022-11-15T15:21:43;94974.38;;;8.89;84.56
6343;BME280;3204;42.698;23.298;2022-11-15T15:24:13;94961.63;;;8.76;84.75
6343;BME280;3204;42.698;23.298;2022-11-15T15:26:40;94966.03;;;8.72;85.50
6343;BME280;3204;42.698;23.298;2022-11-15T15:29:05;94956.06;;;8.86;84.56
6343;BME280;3204;42.698;23.298;2022-11-15T15:31:32;94949.13;;;8.80;84.94
6343;BME280;3204;42.698;23.298;2022-11-15T15:33:58;94958.84;;;8.81;84.56
6343;BME280;3204;42.698;23.298;2022-11-15T15:36:23;94954.94;;;8.87;84.96
6343;BME280;3204;42.698;23.298;2022-11-15T15:38:49;94958.94;;;8.76;84.91